Time;durP1;ratioP1;P1;durP2;ratioP2;P2;SDS_P1;SDS_P2;PMS_P1;PMS_P2;Temp;Humidity;BMP_temperature;BMP_pressure;BME280_temperature;BME280_humidity;BME280_pressure;Samples;Min_cycle;Max_cycle;Signal;HPM_P1;HPM_P2
2022/03/31 00:01:38;;;;;;;0.40;0.20;;;9.10;99.90;;;;;;5051731;28;20463;-82
2022/03/31 00:04:05;;;;;;;0.30;0.20;;;9.10;99.90;;;;;;5034506;28;20999;-83
2022/03/31 00:06:32;;;;;;;0.40;0.20;;;9.10;99.90;;;;;;5048569;28;20449;-85
2022/03/31 00:08:59;;;;;;;0.70;0.20;;;9.10;99.90;;;;;;5049342;28;20491;-85
2022/03/31 00:11:26;;;;;;;0.67;0.67;;;9.10;99.90;;;;;;5031761;28;20535;-83
2022/03/31 00:13:54;;;;;;;0.90;0.50;;;9.00;99.90;;;;;;5030558;28;20535;-83
2022/03/31 00:16:21;;;;;;;0.77;0.50;;;9.00;99.90;;;;;;5044582;28;20508;-86
2022/03/31 00:18:48;;;;;;;0.30;0.10;;;9.00;99.90;;;;;;5050339;28;20934;-83
2022/03/31 00:21:15;;;;;;;0.30;0.20;;;9.00;99.90;;;;;;5048170;28;20936;-83
2022/03/31 00:23:42;;;;;;;0.40;0.30;;;9.00;99.90;;;;;;5049741;28;20448;-83
2022/03/31 00:26:09;;;;;;;0.77;0.77;;;9.00;99.90;;;;;;5031959;28;20457;-85
2022/03/31 00:28:36;;;;;;;0.30;0.20;;;8.90;99.90;;;;;;5030202;28;20449;-82
2022/03/31 00:31:04;;;;;;;0.67;0.67;;;8.80;99.90;;;;;;5044122;28;20495;-83
2022/03/31 00:33:31;;;;;;;0.30;0.20;;;8.80;99.90;;;;;;5049957;28;20926;-82
2022/03/31 00:35:58;;;;;;;0.30;0.17;;;8.70;99.90;;;;;;5051631;28;20507;-83
2022/03/31 00:38:25;;;;;;;0.40;0.40;;;8.70;99.90;;;;;;5037195;28;20457;-85
2022/03/31 00:40:53;;;;;;;0.30;0.20;;;8.60;99.90;;;;;;5036741;28;20888;-85
2022/03/31 00:43:20;;;;;;;1.07;0.47;;;8.70;99.90;;;;;;5049474;28;20888;-82
2022/03/31 00:45:53;;;;;;;0.30;0.20;;;8.50;99.90;;;;;;5046589;28;20487;-85
2022/03/31 00:48:22;;;;;;;0.30;0.20;;;8.50;99.90;;;;;;5047332;28;20441;-83
2022/03/31 00:50:49;;;;;;;0.40;0.40;;;8.50;99.90;;;;;;5049521;28;20456;-83
2022/03/31 00:53:17;;;;;;;1.17;0.47;;;8.40;99.90;;;;;;5047179;28;20456;-83
2022/03/31 00:55:46;;;;;;;0.60;0.60;;;8.30;99.90;;;;;;5034993;28;20496;-84
2022/03/31 00:58:14;;;;;;;1.03;0.93;;;8.20;99.90;;;;;;5047817;28;20919;-83
2022/03/31 01:00:41;;;;;;;1.07;0.30;;;8.10;99.90;;;;;;5053307;28;20445;-84
2022/03/31 01:03:09;;;;;;;0.30;0.20;;;8.10;99.90;;;;;;5050007;28;20939;-85
2022/03/31 01:05:39;;;;;;;0.80;0.20;;;8.00;99.90;;;;;;5050438;28;20448;-83
2022/03/31 01:08:06;;;;;;;0.30;0.20;;;7.90;99.90;;;;;;5050265;28;20433;-82
2022/03/31 01:10:33;;;;;;;0.30;0.20;;;7.90;99.90;;;;;;5050401;28;20525;-83
2022/03/31 01:13:04;;;;;;;1.80;1.63;;;7.90;99.90;;;;;;5040498;28;20940;-83
2022/03/31 01:15:31;;;;;;;0.50;0.50;;;7.90;99.90;;;;;;5048913;28;20480;-83
2022/03/31 01:17:58;;;;;;;0.30;0.20;;;8.00;99.90;;;;;;5044332;28;20924;-83
2022/03/31 01:20:25;;;;;;;2.00;0.60;;;8.00;99.90;;;;;;5049550;28;20529;-83
2022/03/31 01:22:53;;;;;;;0.40;0.30;;;8.00;99.90;;;;;;5050124;28;20529;-83
2022/03/31 01:25:21;;;;;;;0.90;0.90;;;8.00;99.90;;;;;;5050239;28;20455;-83
2022/03/31 01:27:49;;;;;;;0.30;0.30;;;8.00;99.90;;;;;;5040950;28;20480;-82
2022/03/31 01:30:18;;;;;;;0.30;0.23;;;8.00;99.90;;;;;;5041347;28;20451;-85
2022/03/31 01:32:46;;;;;;;0.30;0.20;;;7.90;99.90;;;;;;5049673;28;20444;-84
2022/03/31 01:35:14;;;;;;;1.23;0.53;;;7.90;99.90;;;;;;5048946;28;20537;-83
2022/03/31 01:37:41;;;;;;;0.77;0.30;;;7.80;99.90;;;;;;5050376;28;20436;-84
2022/03/31 01:40:09;;;;;;;0.60;0.30;;;7.80;99.90;;;;;;5050285;28;20448;-84
2022/03/31 01:42:38;;;;;;;0.30;0.20;;;7.90;99.90;;;;;;5048816;28;20464;-85
2022/03/31 01:45:07;;;;;;;1.00;0.87;;;8.00;99.90;;;;;;5049651;28;20505;-82
2022/03/31 01:47:34;;;;;;;0.40;0.20;;;8.00;99.90;;;;;;5049352;28;20934;-82
2022/03/31 01:50:02;;;;;;;1.03;0.43;;;7.90;99.90;;;;;;5044732;28;21002;-83
2022/03/31 01:52:29;;;;;;;0.30;0.20;;;7.90;99.90;;;;;;5041856;28;20456;-82
2022/03/31 01:54:56;;;;;;;0.40;0.33;;;7.90;99.90;;;;;;5049263;28;20492;-83
2022/03/31 01:57:23;;;;;;;0.30;0.20;;;7.90;99.90;;;;;;5052014;28;20452;-83
2022/03/31 01:59:51;;;;;;;0.40;0.40;;;7.80;99.90;;;;;;5049431;28;20440;-83
2022/03/31 02:02:19;;;;;;;0.30;0.20;;;7.90;99.90;;;;;;5036081;28;20531;-84
2022/03/31 02:04:47;;;;;;;0.97;0.67;;;7.90;99.90;;;;;;5033485;28;20893;-82
2022/03/31 02:07:14;;;;;;;0.50;0.50;;;7.90;99.90;;;;;;5048454;28;20528;-84
2022/03/31 02:09:41;;;;;;;0.30;0.20;;;7.90;99.90;;;;;;5044365;28;20845;-83
2022/03/31 02:12:09;;;;;;;0.30;0.20;;;8.00;99.90;;;;;;5052812;28;20542;-83
2022/03/31 02:14:37;;;;;;;0.40;0.30;;;8.00;99.90;;;;;;5052914;28;20525;-82
2022/03/31 02:17:06;;;;;;;0.63;0.40;;;7.90;99.90;;;;;;5053154;28;20456;-84
2022/03/31 02:19:33;;;;;;;1.27;0.93;;;7.90;99.90;;;;;;5053360;28;20473;-83
2022/03/31 02:22:00;;;;;;;0.30;0.20;;;7.90;99.90;;;;;;5046010;28;20511;-85
2022/03/31 02:24:28;;;;;;;0.50;0.20;;;7.90;99.90;;;;;;5049890;28;20516;-83
2022/03/31 02:26:55;;;;;;;0.93;0.93;;;7.90;99.90;;;;;;5055300;28;20449;-83
2022/03/31 02:29:22;;;;;;;0.30;0.20;;;7.90;99.90;;;;;;5052968;28;20510;-84
2022/03/31 02:31:49;;;;;;;0.30;0.20;;;7.90;99.90;;;;;;5053193;28;20444;-84
2022/03/31 02:34:18;;;;;;;0.63;0.50;;;7.90;99.90;;;;;;5047040;28;20485;-83
2022/03/31 02:36:46;;;;;;;0.30;0.20;;;7.80;99.90;;;;;;5048610;28;20451;-83
2022/03/31 02:39:13;;;;;;;2.80;1.73;;;7.80;99.90;;;;;;5049166;28;20453;-83
2022/03/31 02:41:40;;;;;;;0.40;0.40;;;7.80;99.90;;;;;;5052174;28;20527;-85
2022/03/31 02:44:08;;;;;;;0.50;0.43;;;7.80;99.90;;;;;;5051284;28;20453;-85
2022/03/31 02:46:35;;;;;;;1.33;1.33;;;7.70;99.90;;;;;;5049142;28;20472;-82
2022/03/31 02:49:02;;;;;;;0.40;0.33;;;7.70;99.90;;;;;;5049655;28;20478;-84
2022/03/31 02:51:31;;;;;;;0.60;0.27;;;7.70;99.90;;;;;;5051916;28;20456;-83
2022/03/31 02:56:42;;;;;;;0.30;0.20;;;7.70;99.90;;;;;;5052417;28;20594;-83
2022/03/31 02:59:09;;;;;;;0.40;0.20;;;7.80;99.90;;;;;;5050048;28;20454;-82
2022/03/31 03:01:36;;;;;;;0.30;0.20;;;7.70;99.90;;;;;;5051786;28;20920;-83
2022/03/31 03:04:04;;;;;;;0.77;0.77;;;7.70;99.90;;;;;;5048320;28;20491;-83
2022/03/31 03:06:32;;;;;;;0.40;0.30;;;7.70;99.90;;;;;;5047726;28;20490;-83
2022/03/31 03:08:59;;;;;;;0.30;0.20;;;7.60;99.90;;;;;;5032609;28;20433;-83
2022/03/31 03:11:26;;;;;;;0.40;0.30;;;7.60;99.90;;;;;;5033134;28;20461;-83
2022/03/31 03:13:53;;;;;;;0.30;0.20;;;7.60;99.90;;;;;;5051565;28;20514;-82
2022/03/31 03:16:20;;;;;;;0.30;0.20;;;7.60;99.90;;;;;;5051762;28;20481;-83
2022/03/31 03:18:47;;;;;;;0.30;0.20;;;7.70;99.90;;;;;;5051686;28;20480;-83
2022/03/31 03:21:14;;;;;;;0.60;0.50;;;7.70;99.90;;;;;;5052641;28;20450;-84
2022/03/31 03:23:43;;;;;;;0.50;0.47;;;7.60;99.90;;;;;;5051626;28;21084;-83
2022/03/31 03:26:10;;;;;;;0.63;0.37;;;7.70;99.90;;;;;;5051827;28;20947;-82
2022/03/31 03:28:37;;;;;;;0.90;0.53;;;7.70;99.90;;;;;;5052095;28;20444;-86
2022/03/31 03:31:04;;;;;;;2.97;0.33;;;7.70;99.90;;;;;;5051853;28;20481;-85
2022/03/31 03:33:32;;;;;;;0.30;0.20;;;7.60;99.90;;;;;;5046817;28;20507;-83
2022/03/31 03:35:59;;;;;;;0.93;0.67;;;7.70;99.90;;;;;;5051140;28;20628;-84
2022/03/31 03:38:26;;;;;;;1.27;0.77;;;7.60;99.90;;;;;;5052170;28;20498;-83
2022/03/31 03:40:55;;;;;;;0.63;0.63;;;7.60;99.90;;;;;;5051006;28;20464;-83
2022/03/31 03:43:22;;;;;;;0.97;0.40;;;7.60;99.90;;;;;;5042237;28;20954;-83
2022/03/31 03:45:49;;;;;;;0.30;0.20;;;7.60;99.90;;;;;;5047197;28;20871;-82
2022/03/31 03:48:16;;;;;;;1.13;0.90;;;7.60;99.90;;;;;;5050726;28;20487;-83
2022/03/31 03:50:44;;;;;;;0.30;0.20;;;7.60;99.90;;;;;;5046313;28;20466;-83
2022/03/31 03:53:11;;;;;;;0.30;0.20;;;7.60;99.90;;;;;;5051690;28;20969;-83
2022/03/31 03:55:39;;;;;;;0.40;0.23;;;7.80;99.90;;;;;;5051041;28;20820;-83
2022/03/31 03:58:08;;;;;;;0.30;0.20;;;7.80;99.90;;;;;;5050643;28;20461;-82
2022/03/31 04:00:35;;;;;;;1.20;0.93;;;7.70;99.90;;;;;;5044009;28;20977;-83
2022/03/31 04:03:02;;;;;;;0.60;0.33;;;7.70;99.90;;;;;;5050293;28;20860;-85
2022/03/31 04:05:29;;;;;;;0.60;0.60;;;7.60;99.90;;;;;;5051405;28;20449;-82
2022/03/31 04:07:56;;;;;;;0.60;0.60;;;7.60;99.90;;;;;;5044802;28;20896;-83
2022/03/31 04:10:23;;;;;;;1.67;0.50;;;7.60;99.90;;;;;;5037131;28;20456;-85
2022/03/31 04:12:50;;;;;;;0.30;0.20;;;7.60;99.90;;;;;;5050963;28;20498;-83
2022/03/31 04:15:19;;;;;;;0.40;0.30;;;7.50;99.90;;;;;;5056187;28;21001;-86
2022/03/31 04:17:45;;;;;;;0.60;0.30;;;7.60;99.90;;;;;;5067332;28;20448;-83
2022/03/31 04:20:14;;;;;;;0.60;0.47;;;7.50;99.90;;;;;;5066928;28;20555;-81
2022/03/31 04:22:41;;;;;;;0.40;0.33;;;7.60;99.90;;;;;;5065403;28;20454;-83
2022/03/31 04:25:10;;;;;;;0.30;0.20;;;7.70;99.90;;;;;;5069231;28;20447;-85
2022/03/31 04:27:39;;;;;;;0.50;0.50;;;7.70;99.90;;;;;;5069309;28;20869;-82
2022/03/31 04:30:10;;;;;;;0.87;0.80;;;7.70;99.90;;;;;;5067314;28;20451;-85
2022/03/31 04:32:39;;;;;;;0.87;0.87;;;7.60;99.90;;;;;;5056685;28;20453;-86
2022/03/31 04:35:07;;;;;;;0.30;0.20;;;7.60;99.90;;;;;;5050874;28;20476;-83
2022/03/31 04:37:34;;;;;;;0.87;0.63;;;7.50;99.90;;;;;;5039140;28;20466;-85
2022/03/31 04:40:02;;;;;;;0.73;0.57;;;7.40;99.90;;;;;;5036023;28;20470;-82
2022/03/31 04:42:29;;;;;;;0.40;0.20;;;7.50;99.90;;;;;;5044234;28;20604;-82
2022/03/31 04:44:56;;;;;;;0.93;0.80;;;7.40;99.90;;;;;;5055186;28;20890;-85
2022/03/31 04:47:23;;;;;;;0.43;0.40;;;7.30;99.90;;;;;;5051628;28;20479;-83
2022/03/31 04:49:52;;;;;;;0.30;0.20;;;7.30;99.90;;;;;;5060007;28;20481;-83
2022/03/31 04:52:19;;;;;;;0.60;0.60;;;7.40;99.90;;;;;;5049861;28;20461;-83
2022/03/31 04:54:46;;;;;;;1.60;1.17;;;7.50;99.90;;;;;;5059463;28;20526;-81
2022/03/31 04:57:13;;;;;;;0.30;0.20;;;7.40;99.90;;;;;;5048192;28;20520;-83
2022/03/31 04:59:41;;;;;;;2.93;2.13;;;7.40;99.90;;;;;;5045529;28;20490;-82
2022/03/31 05:02:08;;;;;;;2.30;0.80;;;7.50;99.90;;;;;;5047359;28;20467;-82
2022/03/31 05:04:35;;;;;;;0.83;0.83;;;7.50;99.90;;;;;;5046535;28;20456;-83
2022/03/31 05:07:04;;;;;;;0.67;0.67;;;7.60;99.90;;;;;;5048516;28;20464;-85
2022/03/31 05:09:31;;;;;;;0.40;0.30;;;7.50;99.90;;;;;;5057466;28;20968;-83
2022/03/31 05:11:58;;;;;;;0.93;0.93;;;7.60;99.90;;;;;;5050759;28;21075;-83
2022/03/31 05:14:25;;;;;;;1.43;0.50;;;7.60;99.90;;;;;;5064229;28;20962;-84
2022/03/31 05:16:52;;;;;;;0.40;0.27;;;7.60;99.90;;;;;;5050864;28;20901;-82
2022/03/31 05:19:19;;;;;;;0.60;0.60;;;7.60;99.90;;;;;;5065597;28;20499;-83
2022/03/31 05:21:46;;;;;;;0.40;0.27;;;7.70;99.90;;;;;;5061867;28;20585;-85
2022/03/31 05:24:14;;;;;;;0.40;0.30;;;7.70;99.90;;;;;;5060479;28;20456;-83
2022/03/31 05:26:42;;;;;;;1.53;1.43;;;7.80;99.90;;;;;;5054483;28;20545;-83
2022/03/31 05:29:09;;;;;;;0.40;0.20;;;7.90;99.90;;;;;;5045431;28;20512;-85
2022/03/31 05:31:36;;;;;;;0.63;0.20;;;7.90;99.90;;;;;;5050354;28;20469;-85
2022/03/31 05:34:03;;;;;;;1.03;1.03;;;8.00;99.90;;;;;;5056633;28;20462;-82
2022/03/31 05:36:30;;;;;;;0.53;0.50;;;8.00;99.90;;;;;;5051415;28;20965;-83
2022/03/31 05:38:57;;;;;;;0.50;0.40;;;8.00;99.90;;;;;;5054614;28;20473;-83
2022/03/31 05:41:25;;;;;;;0.40;0.30;;;8.00;99.90;;;;;;5049897;28;20460;-81
2022/03/31 05:43:53;;;;;;;0.70;0.70;;;8.00;99.90;;;;;;5051119;28;20455;-82
2022/03/31 05:46:22;;;;;;;0.47;0.40;;;8.00;99.90;;;;;;5066865;28;20448;-82
2022/03/31 05:48:49;;;;;;;0.40;0.30;;;8.00;99.90;;;;;;5058898;28;20821;-82
2022/03/31 05:51:16;;;;;;;0.47;0.47;;;8.00;99.90;;;;;;5062255;28;20440;-83
2022/03/31 05:53:43;;;;;;;0.70;0.70;;;8.10;99.90;;;;;;5069075;28;20926;-85
2022/03/31 05:56:11;;;;;;;1.40;0.70;;;8.10;99.90;;;;;;5062161;28;20487;-84
2022/03/31 05:58:39;;;;;;;1.23;0.57;;;8.10;99.90;;;;;;5059106;28;20488;-85
2022/03/31 06:01:06;;;;;;;0.30;0.10;;;8.10;99.90;;;;;;5059290;28;20472;-84
2022/03/31 06:03:33;;;;;;;1.27;1.17;;;8.10;99.90;;;;;;5051511;28;20473;-82
2022/03/31 06:06:00;;;;;;;0.40;0.30;;;8.20;99.90;;;;;;5048739;28;20483;-82
2022/03/31 06:08:28;;;;;;;0.73;0.73;;;8.30;99.90;;;;;;5050921;28;20452;-85
2022/03/31 06:10:55;;;;;;;0.60;0.60;;;8.20;99.90;;;;;;5057961;28;20476;-84
2022/03/31 06:13:22;;;;;;;0.30;0.20;;;8.10;99.90;;;;;;5055326;28;20498;-82
2022/03/31 06:15:50;;;;;;;0.40;0.40;;;8.10;99.90;;;;;;5041674;28;20529;-83
2022/03/31 06:18:18;;;;;;;0.30;0.10;;;8.10;99.90;;;;;;5048779;28;20459;-85
2022/03/31 06:20:45;;;;;;;0.40;0.30;;;8.20;99.90;;;;;;5051973;28;20946;-82
2022/03/31 06:23:12;;;;;;;0.30;0.10;;;8.10;99.90;;;;;;5059081;28;20448;-82
2022/03/31 06:25:42;;;;;;;0.30;0.20;;;8.00;99.90;;;;;;5048367;28;20488;-82
2022/03/31 06:28:09;;;;;;;2.20;1.03;;;8.00;99.90;;;;;;5048258;28;20461;-82
2022/03/31 06:30:37;;;;;;;0.30;0.20;;;8.00;99.90;;;;;;5048882;28;20521;-83
2022/03/31 06:33:05;;;;;;;0.40;0.40;;;8.10;99.90;;;;;;5054822;28;20463;-82
2022/03/31 06:35:32;;;;;;;1.20;1.13;;;8.30;99.90;;;;;;5048802;28;20487;-82
2022/03/31 06:38:00;;;;;;;0.30;0.20;;;8.20;99.90;;;;;;5046975;28;20457;-82
2022/03/31 06:40:27;;;;;;;0.30;0.20;;;8.20;99.90;;;;;;5053611;28;20463;-82
2022/03/31 06:42:54;;;;;;;0.40;0.30;;;8.20;99.90;;;;;;5057989;28;20474;-83
2022/03/31 06:45:21;;;;;;;0.90;0.50;;;8.20;99.90;;;;;;5059018;28;20515;-83
2022/03/31 06:47:48;;;;;;;0.30;0.20;;;8.30;99.90;;;;;;5051444;28;20466;-85
2022/03/31 06:50:16;;;;;;;1.10;0.87;;;8.30;99.90;;;;;;5061367;28;20506;-82
2022/03/31 06:52:43;;;;;;;0.50;0.30;;;8.30;99.90;;;;;;5060043;28;20521;-82
2022/03/31 06:55:10;;;;;;;0.40;0.30;;;8.30;99.90;;;;;;5061768;28;20476;-82
2022/03/31 06:57:37;;;;;;;0.80;0.53;;;8.30;99.90;;;;;;5051964;28;20533;-83
2022/03/31 07:00:06;;;;;;;0.40;0.30;;;8.20;99.90;;;;;;5049165;28;20513;-82
2022/03/31 07:02:33;;;;;;;0.30;0.20;;;8.30;99.90;;;;;;5053924;28;20465;-82
2022/03/31 07:05:00;;;;;;;0.90;0.87;;;8.30;99.90;;;;;;5052616;28;20472;-82
2022/03/31 07:07:29;;;;;;;1.30;1.30;;;8.40;99.90;;;;;;5061682;28;20520;-81
2022/03/31 07:09:57;;;;;;;0.83;0.70;;;8.40;99.90;;;;;;5051377;28;20534;-83
2022/03/31 07:12:24;;;;;;;0.50;0.50;;;8.40;99.90;;;;;;5049579;28;20518;-83
2022/03/31 07:14:51;;;;;;;0.40;0.30;;;8.40;99.90;;;;;;5059675;28;20504;-81
2022/03/31 07:17:18;;;;;;;1.13;1.03;;;8.40;99.90;;;;;;5078897;28;21064;-80
2022/03/31 07:19:45;;;;;;;2.00;1.50;;;8.40;99.90;;;;;;5051959;28;21016;-83
2022/03/31 07:22:12;;;;;;;0.40;0.30;;;8.40;99.90;;;;;;5058899;28;20529;-82
2022/03/31 07:24:42;;;;;;;1.43;0.67;;;8.40;99.90;;;;;;5050712;28;21072;-83
2022/03/31 07:27:09;;;;;;;0.30;0.23;;;8.40;99.90;;;;;;5056182;28;20493;-83
2022/03/31 07:29:36;;;;;;;1.93;1.80;;;8.40;99.90;;;;;;5052560;28;20637;-81
2022/03/31 07:32:04;;;;;;;1.17;0.80;;;8.40;99.90;;;;;;5060494;28;20447;-83
2022/03/31 07:34:31;;;;;;;1.27;0.90;;;8.40;99.90;;;;;;5068912;28;20440;-85
2022/03/31 07:36:59;;;;;;;0.77;0.77;;;8.50;99.90;;;;;;5052244;28;20484;-83
2022/03/31 07:39:26;;;;;;;0.93;0.43;;;8.60;99.90;;;;;;5043386;28;20858;-81
2022/03/31 07:41:55;;;;;;;0.40;0.20;;;8.50;99.90;;;;;;5044077;28;20512;-82
2022/03/31 07:44:22;;;;;;;0.40;0.23;;;8.60;99.90;;;;;;5057787;28;20460;-82
2022/03/31 07:46:51;;;;;;;2.43;1.13;;;8.60;99.90;;;;;;5055786;28;20984;-82
2022/03/31 07:49:18;;;;;;;0.30;0.20;;;8.70;99.90;;;;;;5060641;28;20458;-82
2022/03/31 07:51:45;;;;;;;0.33;0.27;;;8.60;99.90;;;;;;5068043;28;20436;-82
2022/03/31 07:54:12;;;;;;;0.30;0.20;;;8.70;99.90;;;;;;5061645;28;20914;-82
2022/03/31 07:56:39;;;;;;;0.30;0.20;;;8.80;99.90;;;;;;5060356;28;20974;-81
2022/03/31 07:59:07;;;;;;;0.73;0.73;;;8.80;99.90;;;;;;5050840;28;20815;-83
2022/03/31 08:01:34;;;;;;;1.07;1.07;;;8.80;99.90;;;;;;5065620;28;20452;-82
2022/03/31 08:04:03;;;;;;;0.40;0.30;;;8.80;99.90;;;;;;5058787;28;20475;-86
2022/03/31 08:06:30;;;;;;;0.30;0.10;;;8.90;99.90;;;;;;5067526;28;20467;-82
2022/03/31 08:08:57;;;;;;;0.43;0.43;;;9.00;99.90;;;;;;5051193;28;20460;-83
2022/03/31 08:11:24;;;;;;;0.60;0.30;;;9.00;99.90;;;;;;5055048;28;20464;-86
2022/03/31 08:13:51;;;;;;;0.60;0.60;;;9.00;99.90;;;;;;5050483;28;20464;-84
2022/03/31 08:16:20;;;;;;;3.63;1.43;;;9.10;99.90;;;;;;5061017;28;20507;-84
2022/03/31 08:18:47;;;;;;;1.07;0.73;;;9.10;99.90;;;;;;5068212;28;20519;-85
2022/03/31 08:21:15;;;;;;;1.50;1.30;;;9.00;99.90;;;;;;5062818;28;20800;-84
2022/03/31 08:23:42;;;;;;;0.50;0.50;;;8.90;99.90;;;;;;5068020;28;20449;-85
2022/03/31 08:26:08;;;;;;;0.30;0.20;;;8.70;99.90;;;;;;5064843;28;20503;-84
2022/03/31 08:28:36;;;;;;;0.43;0.37;;;8.60;99.90;;;;;;5059906;28;20463;-84
2022/03/31 08:31:03;;;;;;;0.30;0.20;;;8.50;99.90;;;;;;5053187;28;20546;-85
2022/03/31 08:33:31;;;;;;;1.03;0.97;;;8.60;99.90;;;;;;5052530;28;20518;-84
2022/03/31 08:35:58;;;;;;;0.40;0.30;;;8.50;99.90;;;;;;5062696;28;20458;-84
2022/03/31 08:38:25;;;;;;;2.53;2.43;;;8.50;99.90;;;;;;5049010;28;20463;-84
2022/03/31 08:40:56;;;;;;;0.43;0.37;;;8.50;99.90;;;;;;5050222;28;20461;-84
2022/03/31 08:43:26;;;;;;;0.40;0.33;;;8.50;99.90;;;;;;5060719;28;20547;-84
2022/03/31 08:45:55;;;;;;;0.60;0.60;;;8.60;99.90;;;;;;5051518;28;21050;-84
2022/03/31 08:48:24;;;;;;;3.67;3.40;;;8.70;99.90;;;;;;5053271;28;20470;-84
2022/03/31 08:50:53;;;;;;;0.40;0.30;;;8.80;99.90;;;;;;5048771;28;20576;-86
2022/03/31 08:53:20;;;;;;;1.70;0.53;;;8.70;99.90;;;;;;5048971;28;21144;-83
2022/03/31 08:55:47;;;;;;;0.87;0.87;;;8.80;99.90;;;;;;5054511;28;21079;-84
2022/03/31 08:58:14;;;;;;;0.93;0.93;;;8.80;99.90;;;;;;5059289;28;20926;-87
2022/03/31 09:00:42;;;;;;;0.33;0.20;;;8.90;99.90;;;;;;5058716;28;20538;-84
2022/03/31 09:03:09;;;;;;;0.67;0.67;;;8.80;99.90;;;;;;5064402;28;20539;-84
2022/03/31 09:05:38;;;;;;;0.63;0.63;;;8.90;99.90;;;;;;5057777;28;20460;-81
2022/03/31 09:08:09;;;;;;;0.83;0.30;;;9.00;99.90;;;;;;5054682;28;20471;-84
2022/03/31 09:10:37;;;;;;;3.37;0.80;;;9.00;99.90;;;;;;5055777;28;20818;-82
2022/03/31 09:13:17;;;;;;;0.70;0.70;;;9.10;99.90;;;;;;5054744;28;20455;-81
2022/03/31 09:15:49;;;;;;;0.70;0.70;;;9.00;99.90;;;;;;5058541;28;20505;-81
2022/03/31 09:18:17;;;;;;;1.07;0.77;;;9.10;99.90;;;;;;5052962;28;20979;-82
2022/03/31 09:20:46;;;;;;;2.93;2.33;;;9.00;99.90;;;;;;5045649;28;20548;-80
2022/03/31 09:23:19;;;;;;;1.43;0.70;;;9.00;99.90;;;;;;5050719;28;20539;-82
2022/03/31 09:25:46;;;;;;;0.30;0.20;;;8.90;99.90;;;;;;5054872;28;20458;-83
2022/03/31 09:28:16;;;;;;;0.40;0.40;;;9.00;99.90;;;;;;5060331;28;20991;-84
2022/03/31 09:30:48;;;;;;;0.40;0.30;;;9.10;99.90;;;;;;5056750;28;21033;-86
2022/03/31 09:33:26;;;;;;;2.43;2.23;;;9.10;99.90;;;;;;5058124;28;20462;-84
2022/03/31 09:36:01;;;;;;;0.60;0.60;;;9.20;99.90;;;;;;5055095;28;20463;-88
2022/03/31 09:38:32;;;;;;;1.43;1.33;;;9.00;99.90;;;;;;5053646;28;20520;-83
2022/03/31 09:40:59;;;;;;;0.93;0.63;;;9.10;99.90;;;;;;5048626;28;20452;-86
2022/03/31 09:43:26;;;;;;;0.83;0.83;;;9.00;99.90;;;;;;5040685;28;20530;-86
2022/03/31 09:45:53;;;;;;;1.03;1.03;;;8.90;99.90;;;;;;5058908;28;20552;-85
2022/03/31 09:48:22;;;;;;;0.83;0.83;;;8.90;99.90;;;;;;5055415;28;20520;-89
2022/03/31 09:50:51;;;;;;;1.80;1.70;;;8.90;99.90;;;;;;5053913;28;20554;-86
2022/03/31 09:53:18;;;;;;;0.97;0.53;;;9.00;99.90;;;;;;5056619;28;20815;-85
2022/03/31 09:55:47;;;;;;;0.40;0.40;;;8.90;99.90;;;;;;5055266;28;20457;-88
2022/03/31 09:58:19;;;;;;;0.40;0.40;;;8.80;99.90;;;;;;5052484;28;20559;-87
2022/03/31 10:00:46;;;;;;;0.80;0.80;;;8.80;99.90;;;;;;5052665;28;20807;-87
2022/03/31 10:03:17;;;;;;;0.63;0.63;;;8.80;99.90;;;;;;5054706;28;21022;-86
2022/03/31 10:05:46;;;;;;;3.40;3.10;;;9.00;99.90;;;;;;5051250;28;20491;-86
2022/03/31 10:08:13;;;;;;;0.53;0.53;;;9.00;99.90;;;;;;5058211;28;20551;-94
2022/03/31 10:10:41;;;;;;;0.40;0.30;;;9.00;99.90;;;;;;5063503;28;20950;-86
2022/03/31 10:13:16;;;;;;;1.37;1.27;;;9.10;99.90;;;;;;5050989;28;20483;-87
2022/03/31 10:15:45;;;;;;;0.70;0.40;;;9.10;99.90;;;;;;5051074;28;20455;-85
2022/03/31 10:18:15;;;;;;;1.83;1.00;;;9.00;99.90;;;;;;5051605;28;20489;-85
2022/03/31 10:20:54;;;;;;;0.30;0.20;;;9.00;99.90;;;;;;5053243;28;20466;-84
2022/03/31 10:26:06;;;;;;;0.40;0.40;;;9.00;99.90;;;;;;5060774;28;20466;-89
2022/03/31 10:28:34;;;;;;;0.30;0.20;;;9.20;99.90;;;;;;5056953;28;20541;-90
2022/03/31 10:31:03;;;;;;;0.53;0.53;;;9.20;99.90;;;;;;5055399;28;20513;-86
2022/03/31 10:33:32;;;;;;;0.30;0.20;;;9.00;99.90;;;;;;5052746;28;20542;-86
2022/03/31 10:36:10;;;;;;;1.27;1.27;;;9.00;99.90;;;;;;5060723;28;20455;-85
2022/03/31 10:38:38;;;;;;;0.40;0.30;;;8.90;99.90;;;;;;5050063;28;20491;-85
2022/03/31 10:41:08;;;;;;;1.07;1.00;;;9.00;99.90;;;;;;5060791;28;20464;-87
2022/03/31 10:43:41;;;;;;;2.03;1.83;;;9.00;99.90;;;;;;5059419;28;20467;-84
2022/03/31 10:46:19;;;;;;;1.50;1.23;;;9.10;99.90;;;;;;5055781;28;20455;-91
2022/03/31 10:48:51;;;;;;;0.40;0.40;;;9.20;99.90;;;;;;5056305;28;20474;-86
2022/03/31 10:51:18;;;;;;;0.30;0.20;;;9.10;99.90;;;;;;5048258;28;20464;-87
2022/03/31 10:53:49;;;;;;;0.40;0.20;;;9.10;99.90;;;;;;5067814;28;20474;-88
2022/03/31 10:56:20;;;;;;;0.50;0.40;;;9.20;99.90;;;;;;5067036;28;20454;-85
2022/03/31 10:58:50;;;;;;;0.30;0.20;;;9.40;99.90;;;;;;5052709;28;20992;-88
2022/03/31 11:01:19;;;;;;;0.67;0.67;;;9.40;99.90;;;;;;5061696;28;20547;-86
2022/03/31 11:03:48;;;;;;;3.30;1.60;;;9.30;99.90;;;;;;5059401;28;20971;-88
2022/03/31 11:06:15;;;;;;;0.40;0.30;;;9.20;99.90;;;;;;5054961;28;20461;-87
2022/03/31 11:08:44;;;;;;;1.60;1.60;;;9.20;99.90;;;;;;5050045;28;20471;-86
2022/03/31 11:11:20;;;;;;;3.13;0.40;;;8.80;99.90;;;;;;5055317;28;20906;-88
2022/03/31 11:13:49;;;;;;;0.43;0.43;;;8.80;99.90;;;;;;5055441;28;20467;-85
2022/03/31 11:16:16;;;;;;;0.40;0.30;;;8.80;99.90;;;;;;5058331;28;20455;-87
2022/03/31 11:18:44;;;;;;;0.47;0.43;;;8.90;99.90;;;;;;5052923;28;20599;-86
2022/03/31 11:21:11;;;;;;;0.30;0.10;;;8.80;99.90;;;;;;5052455;28;20461;-87
2022/03/31 11:23:47;;;;;;;1.20;1.17;;;8.80;99.90;;;;;;5050511;28;20558;-90
2022/03/31 11:26:17;;;;;;;0.30;0.17;;;8.70;99.90;;;;;;5057261;28;20452;-87
2022/03/31 11:28:45;;;;;;;0.77;0.77;;;8.90;99.90;;;;;;5046296;28;20491;-86
2022/03/31 11:31:17;;;;;;;0.73;0.73;;;8.90;99.90;;;;;;5056433;28;20478;-85
2022/03/31 11:33:45;;;;;;;0.30;0.20;;;8.70;99.90;;;;;;5049686;28;20513;-86
2022/03/31 11:36:12;;;;;;;0.40;0.30;;;8.70;99.90;;;;;;5056805;28;20461;-88
2022/03/31 11:38:40;;;;;;;0.30;0.13;;;8.70;99.90;;;;;;5062257;28;20479;-87
2022/03/31 11:41:07;;;;;;;0.40;0.40;;;8.70;99.90;;;;;;5062740;28;20796;-85
2022/03/31 11:43:34;;;;;;;0.30;0.20;;;8.80;99.90;;;;;;5059639;28;20532;-87
2022/03/31 11:46:01;;;;;;;0.50;0.20;;;8.80;99.90;;;;;;5052017;28;20533;-86
2022/03/31 11:48:36;;;;;;;0.30;0.20;;;8.70;99.90;;;;;;5052327;28;20467;-86
2022/03/31 11:51:04;;;;;;;1.70;1.60;;;8.70;99.90;;;;;;5054761;28;20952;-86
2022/03/31 11:53:33;;;;;;;0.40;0.20;;;8.90;99.90;;;;;;5053520;28;20475;-84
2022/03/31 11:56:02;;;;;;;0.30;0.20;;;8.90;99.90;;;;;;5055500;28;20545;-87
2022/03/31 11:58:30;;;;;;;0.30;0.10;;;8.90;99.90;;;;;;5053273;28;20487;-86
2022/03/31 12:00:57;;;;;;;0.30;0.20;;;9.00;99.90;;;;;;5054056;28;20480;-86
2022/03/31 12:03:35;;;;;;;0.33;0.20;;;9.20;99.90;;;;;;5049008;28;20467;-86
2022/03/31 12:06:04;;;;;;;0.30;0.10;;;9.20;99.90;;;;;;5059733;28;20789;-85
2022/03/31 12:08:32;;;;;;;0.30;0.20;;;9.20;99.90;;;;;;5053172;28;20882;-87
2022/03/31 12:11:00;;;;;;;0.43;0.43;;;9.30;99.90;;;;;;5055023;28;21122;-85
2022/03/31 12:13:29;;;;;;;0.40;0.33;;;9.30;99.90;;;;;;5065825;28;20467;-85
2022/03/31 12:16:04;;;;;;;0.37;0.20;;;9.40;99.90;;;;;;5052580;28;20464;-85
2022/03/31 12:18:33;;;;;;;0.40;0.30;;;9.40;99.90;;;;;;5045505;28;20499;-86
2022/03/31 12:21:03;;;;;;;0.30;0.20;;;9.40;99.90;;;;;;5060968;28;20479;-87
2022/03/31 12:23:30;;;;;;;2.90;0.80;;;9.20;99.90;;;;;;5057456;28;20450;-85
2022/03/31 12:25:57;;;;;;;3.60;3.40;;;9.30;99.90;;;;;;5048660;28;20473;-85
2022/03/31 12:28:25;;;;;;;0.30;0.20;;;9.30;99.90;;;;;;5067764;28;20891;-85
2022/03/31 12:30:54;;;;;;;3.50;0.63;;;9.20;99.90;;;;;;5066232;28;20471;-87
2022/03/31 12:33:26;;;;;;;0.40;0.40;;;9.10;99.90;;;;;;5053753;28;20484;-86
2022/03/31 12:36:01;;;;;;;0.30;0.20;;;9.20;99.90;;;;;;5064865;28;20994;-85
2022/03/31 12:38:41;;;;;;;1.00;1.00;;;9.20;99.90;;;;;;5046559;28;20486;-86
2022/03/31 12:41:14;;;;;;;1.40;1.37;;;9.30;99.90;;;;;;5046683;28;20501;-85
2022/03/31 12:43:41;;;;;;;0.37;0.23;;;9.30;99.90;;;;;;5048615;28;20463;-87
2022/03/31 12:46:16;;;;;;;0.30;0.10;;;9.20;99.90;;;;;;5059963;28;21009;-86
2022/03/31 12:48:54;;;;;;;0.40;0.27;;;9.20;99.90;;;;;;5056025;28;20748;-84
2022/03/31 12:51:22;;;;;;;0.30;0.20;;;9.10;99.90;;;;;;5059935;28;20509;-87
2022/03/31 12:53:51;;;;;;;0.30;0.20;;;9.10;99.90;;;;;;5062470;28;20472;-86
2022/03/31 12:56:28;;;;;;;0.30;0.13;;;9.00;99.90;;;;;;5048599;28;21003;-85
2022/03/31 12:58:57;;;;;;;0.30;0.10;;;8.80;99.90;;;;;;5051307;28;20536;-87
2022/03/31 13:01:26;;;;;;;1.63;0.83;;;8.90;99.90;;;;;;5050532;28;20594;-88
2022/03/31 13:03:54;;;;;;;0.30;0.20;;;9.00;99.90;;;;;;5061238;28;20493;-88
2022/03/31 13:06:21;;;;;;;0.40;0.37;;;9.00;99.90;;;;;;5055684;28;20495;-86
2022/03/31 13:08:51;;;;;;;0.60;0.60;;;9.00;99.90;;;;;;5044396;28;20499;-86